createdAt,value
2022-09-14T00:00:10.487Z,17.05
2022-09-14T00:03:13.110Z,17.07
2022-09-14T00:06:16.385Z,16.92
2022-09-14T00:09:20.099Z,16.84
2022-09-14T00:12:24.993Z,17.05
2022-09-14T00:15:27.914Z,16.61
2022-09-14T00:18:30.469Z,16.96
2022-09-14T00:21:33.096Z,16.38
2022-09-14T00:24:35.876Z,16.84
2022-09-14T00:27:39.793Z,16.44
2022-09-14T00:30:42.642Z,16.76
2022-09-14T00:33:47.224Z,16.61
2022-09-14T00:36:50.539Z,16.12
2022-09-14T00:39:53.204Z,16.61
2022-09-14T00:42:57.179Z,16.59
2022-09-14T00:46:01.328Z,16.57
2022-09-14T00:49:05.228Z,16.55
2022-09-14T00:52:09.544Z,16.42
2022-09-14T00:55:13.057Z,16.59
2022-09-14T00:58:17.027Z,16.10
2022-09-14T01:01:19.750Z,16.54
2022-09-14T01:04:22.381Z,16.62
2022-09-14T01:07:35.350Z,16.64
2022-09-14T01:10:48.222Z,16.40
2022-09-14T01:13:55.752Z,16.33
2022-09-14T01:17:02.404Z,16.35
2022-09-14T01:20:16.835Z,16.54
2022-09-14T01:23:22.511Z,16.57
2022-09-14T01:26:48.275Z,16.47
2022-09-14T01:29:53.295Z,16.27
2022-09-14T01:33:03.000Z,16.42
2022-09-14T01:36:06.568Z,16.49
2022-09-14T01:39:09.414Z,16.35
2022-09-14T01:42:12.891Z,16.46
2022-09-14T01:45:18.944Z,16.47
2022-09-14T01:48:23.089Z,16.22
2022-09-14T01:51:27.509Z,16.07
2022-09-14T01:54:32.141Z,16.18
2022-09-14T01:57:37.194Z,16.49
2022-09-14T02:00:43.701Z,16.46
2022-09-14T02:03:48.889Z,16.16
2022-09-14T02:06:51.652Z,16.46
2022-09-14T02:09:54.436Z,16.45
2022-09-14T02:12:57.075Z,16.17
2022-09-14T02:16:01.090Z,16.35
2022-09-14T02:19:03.701Z,16.32
2022-09-14T02:22:06.275Z,16.33
2022-09-14T02:25:10.180Z,16.38
2022-09-14T02:28:12.753Z,15.87
2022-09-14T02:31:18.812Z,16.45
2022-09-14T02:34:25.549Z,16.44
2022-09-14T02:37:31.684Z,16.45
2022-09-14T02:40:35.934Z,16.26
2022-09-14T02:43:42.770Z,16.46
2022-09-14T02:46:48.841Z,16.38
2022-09-14T02:49:54.626Z,16.44
2022-09-14T02:53:00.709Z,16.41
2022-09-14T02:56:09.667Z,16.08
2022-09-14T02:59:12.213Z,16.02
2022-09-14T03:02:16.210Z,16.35
2022-09-14T03:05:18.859Z,16.37
2022-09-14T03:08:21.454Z,16.18
2022-09-14T03:11:24.069Z,16.07
2022-09-14T03:14:26.628Z,16.41
2022-09-14T03:17:30.493Z,16.13
2022-09-14T03:20:33.281Z,16.03
2022-09-14T03:23:38.724Z,15.97
2022-09-14T03:26:41.520Z,16.27
2022-09-14T03:29:44.054Z,16.19
2022-09-14T03:32:48.074Z,15.95
2022-09-14T03:35:50.680Z,16.14
2022-09-14T03:38:54.675Z,16.10
2022-09-14T03:41:57.223Z,16.17
2022-09-14T03:44:59.793Z,16.16
2022-09-14T03:48:05.221Z,16.14
2022-09-14T03:51:08.443Z,16.15
2022-09-14T03:54:11.037Z,15.95
2022-09-14T03:57:13.588Z,16.21
2022-09-14T04:00:16.475Z,15.84
2022-09-14T04:03:21.032Z,16.25
2022-09-14T04:06:24.265Z,16.05
2022-09-14T04:09:27.024Z,16.31
2022-09-14T04:12:29.602Z,16.32
2022-09-14T04:15:32.167Z,15.82
2022-09-14T04:18:36.052Z,16.40
2022-09-14T04:21:38.566Z,16.41
2022-09-14T04:24:41.113Z,16.46
2022-09-14T04:27:48.385Z,16.49
2022-09-14T04:30:58.445Z,16.27
2022-09-14T04:34:02.708Z,16.49
2022-09-14T04:37:05.323Z,16.49
2022-09-14T04:40:09.119Z,16.50
2022-09-14T04:43:11.766Z,16.13
2022-09-14T04:46:15.515Z,16.55
2022-09-14T04:49:21.465Z,16.59
2022-09-14T04:52:24.723Z,16.61
2022-09-14T04:55:27.756Z,16.34
2022-09-14T04:58:30.432Z,16.23
2022-09-14T05:01:34.132Z,16.59
2022-09-14T05:04:38.124Z,16.57
2022-09-14T05:07:40.696Z,16.52
2022-09-14T05:10:43.355Z,16.49
2022-09-14T05:13:49.724Z,16.31
2022-09-14T05:16:52.753Z,16.42
2022-09-14T05:19:56.658Z,16.45
2022-09-14T05:22:59.249Z,16.04
2022-09-14T05:26:01.921Z,16.01
2022-09-14T05:29:04.741Z,16.36
2022-09-14T05:32:07.393Z,16.39
2022-09-14T05:35:11.467Z,16.29
2022-09-14T05:38:14.099Z,16.07
2022-09-14T05:41:16.883Z,16.26
2022-09-14T05:44:19.420Z,16.22
2022-09-14T05:47:22.005Z,15.94
2022-09-14T05:50:26.028Z,16.14
2022-09-14T05:53:28.672Z,15.79
2022-09-14T05:56:31.580Z,16.16
2022-09-14T05:59:34.203Z,16.17
2022-09-14T06:02:36.736Z,16.19
2022-09-14T06:05:40.703Z,16.21
2022-09-14T06:08:43.301Z,16.21
2022-09-14T06:11:45.817Z,16.13
2022-09-14T06:14:48.354Z,16.11
2022-09-14T06:17:50.946Z,16.08
2022-09-14T06:20:54.821Z,16.14
2022-09-14T06:23:57.492Z,15.53
2022-09-14T06:27:00.014Z,15.83
2022-09-14T06:30:02.536Z,15.79
2022-09-14T06:33:05.705Z,16.22
2022-09-14T06:36:12.502Z,16.22
2022-09-14T06:39:15.266Z,16.27
2022-09-14T06:42:17.788Z,16.27
2022-09-14T06:45:20.365Z,16.22
2022-09-14T06:48:22.887Z,16.11
2022-09-14T06:51:27.853Z,16.06
2022-09-14T06:54:30.456Z,16.16
2022-09-14T06:57:33.001Z,16.06
2022-09-14T07:00:36.353Z,16.14
2022-09-14T07:03:39.391Z,15.92
2022-09-14T07:06:44.140Z,16.20
2022-09-14T07:09:46.609Z,16.13
2022-09-14T07:12:49.502Z,15.76
2022-09-14T07:15:52.119Z,15.64
2022-09-14T07:18:54.681Z,15.92
2022-09-14T07:21:58.604Z,16.22
2022-09-14T07:25:01.148Z,15.97
2022-09-14T07:28:03.724Z,16.33
2022-09-14T07:31:06.837Z,16.34
2022-09-14T07:34:09.965Z,16.08
2022-09-14T07:37:13.839Z,15.95
2022-09-14T07:40:16.743Z,16.22
2022-09-14T07:43:19.365Z,16.22
2022-09-14T07:46:22.168Z,16.18
2022-09-14T07:49:24.895Z,16.13
2022-09-14T07:52:28.781Z,16.09
2022-09-14T07:55:31.361Z,16.23
2022-09-14T07:58:33.931Z,16.26
2022-09-14T08:01:36.571Z,16.30
2022-09-14T08:04:39.730Z,16.35
2022-09-14T08:07:43.600Z,16.18
2022-09-14T08:10:46.138Z,16.23
2022-09-14T08:13:51.725Z,16.14
2022-09-14T08:16:54.293Z,16.32
2022-09-14T08:19:56.879Z,16.30
2022-09-14T08:23:01.434Z,16.34
2022-09-14T08:26:05.062Z,15.92
2022-09-14T08:29:07.975Z,16.02
2022-09-14T08:32:12.336Z,16.41
2022-09-14T08:35:15.008Z,16.46
2022-09-14T08:38:18.928Z,16.09
2022-09-14T08:41:28.799Z,16.55
2022-09-14T08:44:32.103Z,16.12
2022-09-14T08:47:36.700Z,16.62
2022-09-14T08:50:39.245Z,16.67
2022-09-14T08:53:43.180Z,16.63
2022-09-14T08:56:47.943Z,16.53
2022-09-14T08:59:53.836Z,16.18
2022-09-14T09:03:20.219Z,16.80
2022-09-14T09:06:24.977Z,16.88
2022-09-14T09:09:32.403Z,16.86
2022-09-14T09:12:37.329Z,16.82
2022-09-14T09:15:43.276Z,16.82
2022-09-14T09:18:48.007Z,16.84
2022-09-14T09:21:50.654Z,16.84
2022-09-14T09:24:55.842Z,16.85
2022-09-14T09:27:59.261Z,16.63
2022-09-14T09:31:04.861Z,16.87
2022-09-14T09:34:07.499Z,16.90
2022-09-14T09:37:14.180Z,16.85
2022-09-14T09:40:19.758Z,16.81
2022-09-14T09:43:38.920Z,16.74
2022-09-14T09:46:49.371Z,16.79
2022-09-14T09:49:57.610Z,16.84
2022-09-14T09:53:05.994Z,16.57
2022-09-14T09:56:10.648Z,16.88
2022-09-14T09:59:23.353Z,16.92
2022-09-14T10:02:29.965Z,16.96
2022-09-14T10:05:33.055Z,16.99
2022-09-14T10:08:35.892Z,16.70
2022-09-14T10:11:39.802Z,17.06
2022-09-14T10:14:42.348Z,17.14
2022-09-14T10:18:02.615Z,16.97
2022-09-14T10:21:07.695Z,17.04
2022-09-14T10:24:17.956Z,17.04
2022-09-14T10:27:40.437Z,17.22
2022-09-14T10:30:45.104Z,17.05
2022-09-14T10:33:47.875Z,17.34
2022-09-14T10:36:59.638Z,17.39
2022-09-14T10:40:15.797Z,17.45
2022-09-14T10:43:25.340Z,17.38
2022-09-14T10:46:30.345Z,17.47
2022-09-14T10:49:39.165Z,17.27
2022-09-14T10:52:44.933Z,17.53
2022-09-14T10:55:50.704Z,17.60
2022-09-14T10:59:15.429Z,17.81
2022-09-14T11:02:58.662Z,17.93
2022-09-14T11:06:08.107Z,18.10
2022-09-14T11:09:17.433Z,18.03
2022-09-14T11:12:21.947Z,18.48
2022-09-14T11:15:28.505Z,18.53
2022-09-14T11:18:34.485Z,18.58
2022-09-14T11:21:41.828Z,18.27
2022-09-14T11:24:45.788Z,18.52
2022-09-14T11:27:51.567Z,18.23
2022-09-14T11:31:00.984Z,18.70
2022-09-14T11:34:09.786Z,18.74
2022-09-14T11:37:14.393Z,18.77
2022-09-14T11:40:19.513Z,18.78
2022-09-14T11:43:24.090Z,18.79
2022-09-14T11:46:35.605Z,18.78
2022-09-14T11:49:49.420Z,18.98
2022-09-14T11:52:56.776Z,19.44
2022-09-14T11:55:59.410Z,19.61
2022-09-14T11:59:04.317Z,19.63
2022-09-14T12:02:52.857Z,19.84
2022-09-14T12:05:56.880Z,19.61
2022-09-14T12:09:24.490Z,20.05
2022-09-14T12:12:34.876Z,19.91
2022-09-14T12:15:37.613Z,19.44
2022-09-14T12:18:41.013Z,19.61
2022-09-14T12:21:44.951Z,19.76
2022-09-14T12:24:58.244Z,19.87
2022-09-14T12:28:00.778Z,19.67
2022-09-14T12:31:10.588Z,19.49
2022-09-14T12:34:19.175Z,20.03
2022-09-14T12:37:33.029Z,20.19
2022-09-14T12:40:37.389Z,19.89
2022-09-14T12:43:57.766Z,20.37
2022-09-14T12:47:01.610Z,20.51
2022-09-14T12:50:11.537Z,20.65
2022-09-14T12:53:24.687Z,20.37
2022-09-14T12:56:30.363Z,20.25
2022-09-14T12:59:36.906Z,20.64
2022-09-14T13:03:11.697Z,20.84
2022-09-14T13:06:14.463Z,20.85
2022-09-14T13:09:21.037Z,20.89
2022-09-14T13:12:24.877Z,20.90
2022-09-14T13:15:28.449Z,20.74
2022-09-14T13:18:33.333Z,20.56
2022-09-14T13:21:36.043Z,20.84
2022-09-14T13:24:44.997Z,20.85
2022-09-14T13:27:47.670Z,21.19
2022-09-14T13:30:54.886Z,21.12
2022-09-14T13:33:57.550Z,21.18
2022-09-14T13:37:05.699Z,21.53
2022-09-14T13:40:10.636Z,21.70
2022-09-14T13:43:13.314Z,21.89
2022-09-14T13:46:20.152Z,21.92
2022-09-14T13:49:23.067Z,21.97
2022-09-14T13:52:43.573Z,22.20
2022-09-14T13:55:54.063Z,21.97
2022-09-14T13:59:17.095Z,21.60
2022-09-14T14:02:19.678Z,21.53
2022-09-14T14:05:23.845Z,21.57
2022-09-14T14:08:32.308Z,21.99
2022-09-14T14:11:37.939Z,22.25
2022-09-14T14:14:40.512Z,22.53
2022-09-14T14:17:43.041Z,22.38
2022-09-14T14:20:45.652Z,22.15
2022-09-14T14:24:09.578Z,22.15
2022-09-14T14:27:27.840Z,22.25
2022-09-14T14:30:30.658Z,22.24
2022-09-14T14:33:33.248Z,22.76
2022-09-14T14:36:36.135Z,22.74
2022-09-14T14:39:38.941Z,22.33
2022-09-14T14:42:42.933Z,22.73
2022-09-14T14:45:45.575Z,22.56
2022-09-14T14:48:48.201Z,22.19
2022-09-14T14:51:51.100Z,21.84
2022-09-14T14:54:53.715Z,22.22
2022-09-14T14:58:00.568Z,22.04
2022-09-14T15:01:03.284Z,22.55
2022-09-14T15:04:06.053Z,22.49
2022-09-14T15:07:08.852Z,22.48
2022-09-14T15:10:13.046Z,22.06
2022-09-14T15:13:17.008Z,22.31
2022-09-14T15:16:19.648Z,22.21
2022-09-14T15:19:22.288Z,21.67
2022-09-14T15:22:25.112Z,22.16
2022-09-14T15:25:27.751Z,22.04
2022-09-14T15:28:31.852Z,22.04
2022-09-14T15:31:34.639Z,21.65
2022-09-14T15:34:37.333Z,22.09
2022-09-14T15:37:39.905Z,22.03
2022-09-14T15:40:42.519Z,21.98
2022-09-14T15:43:46.601Z,22.00
2022-09-14T15:46:49.259Z,21.80
2022-09-14T15:49:52.134Z,21.87
2022-09-14T15:52:58.053Z,21.88
2022-09-14T15:56:03.636Z,21.87
2022-09-14T15:59:08.599Z,21.76
2022-09-14T16:02:11.940Z,21.55
2022-09-14T16:05:16.096Z,21.56
2022-09-14T16:08:18.705Z,21.60
2022-09-14T16:11:21.289Z,21.43
2022-09-14T16:14:25.399Z,21.09
2022-09-14T16:17:27.952Z,21.46
2022-09-14T16:20:30.534Z,21.44
2022-09-14T16:23:33.593Z,21.28
2022-09-14T16:26:37.267Z,21.23
2022-09-14T16:29:41.406Z,21.31
2022-09-14T16:32:44.694Z,21.30
2022-09-14T16:35:47.289Z,21.17
2022-09-14T16:38:49.824Z,21.15
2022-09-14T16:41:53.888Z,20.68
2022-09-14T16:44:57.861Z,20.81
2022-09-14T16:48:00.395Z,21.04
2022-09-14T16:51:03.285Z,20.93
2022-09-14T16:54:05.897Z,20.86
2022-09-14T16:57:08.420Z,21.00
2022-09-14T17:00:13.566Z,20.92
2022-09-14T17:03:16.100Z,20.93
2022-09-14T17:06:19.572Z,20.91
2022-09-14T17:09:23.498Z,20.65
2022-09-14T17:12:26.062Z,20.66
2022-09-14T17:15:30.887Z,20.66
2022-09-14T17:18:33.951Z,20.19
2022-09-14T17:21:39.035Z,20.29
2022-09-14T17:24:41.606Z,20.60
2022-09-14T17:27:44.108Z,20.53
2022-09-14T17:30:48.154Z,20.40
2022-09-14T17:33:50.696Z,20.47
2022-09-14T17:36:53.274Z,20.45
2022-09-14T17:39:55.979Z,20.37
2022-09-14T17:42:58.611Z,20.37
2022-09-14T17:46:02.853Z,20.33
2022-09-14T17:49:05.791Z,20.32
2022-09-14T17:52:08.292Z,20.29
2022-09-14T17:55:10.975Z,19.78
2022-09-14T17:58:17.619Z,20.24
2022-09-14T18:01:23.659Z,19.92
2022-09-14T18:04:27.294Z,20.06
2022-09-14T18:07:30.546Z,19.62
2022-09-14T18:10:33.120Z,20.03
2022-09-14T18:13:35.759Z,19.58
2022-09-14T18:16:39.864Z,19.86
2022-09-14T18:19:42.522Z,19.91
2022-09-14T18:22:45.103Z,19.41
2022-09-14T18:25:47.895Z,19.82
2022-09-14T18:28:51.046Z,19.65
2022-09-14T18:31:55.215Z,19.73
2022-09-14T18:34:57.863Z,19.69
2022-09-14T18:38:00.391Z,19.33
2022-09-14T18:41:06.256Z,19.62
2022-09-14T18:44:09.069Z,19.30
2022-09-14T18:47:13.352Z,19.53
2022-09-14T18:50:16.069Z,19.46
2022-09-14T18:53:18.632Z,19.44
2022-09-14T18:56:21.237Z,18.97
2022-09-14T18:59:23.778Z,19.37
2022-09-14T19:02:27.774Z,19.28
2022-09-14T19:05:31.776Z,19.34
2022-09-14T19:08:34.375Z,19.27
2022-09-14T19:11:36.987Z,19.25
2022-09-14T19:14:39.687Z,19.23
2022-09-14T19:17:43.709Z,19.20
2022-09-14T19:21:05.857Z,19.16
2022-09-14T19:24:10.698Z,19.02
2022-09-14T19:27:13.294Z,18.51
2022-09-14T19:30:15.907Z,18.81
2022-09-14T19:33:19.916Z,18.96
2022-09-14T19:36:23.317Z,18.77
2022-09-14T19:39:26.496Z,18.80
2022-09-14T19:42:29.104Z,18.77
2022-09-14T19:45:32.646Z,18.80
2022-09-14T19:48:36.693Z,18.35
2022-09-14T19:51:39.240Z,18.67
2022-09-14T19:54:41.841Z,18.57
2022-09-14T19:57:44.473Z,18.58
2022-09-14T20:00:47.097Z,18.14
2022-09-14T20:03:51.092Z,18.40
2022-09-14T20:06:55.236Z,18.04
2022-09-14T20:09:57.841Z,18.26
2022-09-14T20:13:00.444Z,18.29
2022-09-14T20:16:10.392Z,18.34
2022-09-14T20:19:15.367Z,18.09
2022-09-14T20:22:17.956Z,18.01
2022-09-14T20:25:20.590Z,18.16
2022-09-14T20:28:26.100Z,18.20
2022-09-14T20:31:28.991Z,18.02
2022-09-14T20:34:34.301Z,18.14
2022-09-14T20:37:36.875Z,17.56
2022-09-14T20:40:39.501Z,18.04
2022-09-14T20:43:42.289Z,17.58
2022-09-14T20:46:46.958Z,17.86
2022-09-14T20:49:50.928Z,17.56
2022-09-14T20:52:53.669Z,17.73
2022-09-14T20:56:01.305Z,17.64
2022-09-14T20:59:05.360Z,17.43
2022-09-14T21:02:07.983Z,17.42
2022-09-14T21:05:11.982Z,17.26
2022-09-14T21:08:14.974Z,17.22
2022-09-14T21:11:18.494Z,16.73
2022-09-14T21:14:21.303Z,16.97
2022-09-14T21:17:25.926Z,17.07
2022-09-14T21:20:29.969Z,17.07
2022-09-14T21:23:32.594Z,16.69
2022-09-14T21:26:38.249Z,17.21
2022-09-14T21:29:43.223Z,17.07
2022-09-14T21:32:47.981Z,16.81
2022-09-14T21:35:52.019Z,17.07
2022-09-14T21:38:55.776Z,17.12
2022-09-14T21:41:59.673Z,17.14
2022-09-14T21:45:02.277Z,16.83
2022-09-14T21:48:05.075Z,17.07
2022-09-14T21:51:10.951Z,17.46
2022-09-14T21:54:13.817Z,17.28
2022-09-14T21:57:16.432Z,17.26
2022-09-14T22:00:19.100Z,17.31
2022-09-14T22:03:21.635Z,17.70
2022-09-14T22:06:27.248Z,17.76
2022-09-14T22:09:30.043Z,17.60
2022-09-14T22:12:32.649Z,17.85
2022-09-14T22:15:35.331Z,17.88
2022-09-14T22:18:38.320Z,17.89
2022-09-14T22:21:42.336Z,17.91
2022-09-14T22:24:44.914Z,17.60
2022-09-14T22:27:47.533Z,17.93
2022-09-14T22:30:52.925Z,17.92
2022-09-14T22:33:56.184Z,17.57
2022-09-14T22:37:00.346Z,17.84
2022-09-14T22:40:03.344Z,17.90
2022-09-14T22:43:06.470Z,17.62
2022-09-14T22:46:09.441Z,17.28
2022-09-14T22:49:12.278Z,17.80
2022-09-14T22:52:16.280Z,17.65
2022-09-14T22:55:18.920Z,17.77
2022-09-14T22:58:23.796Z,17.56
2022-09-14T23:01:27.521Z,17.30
2022-09-14T23:04:31.062Z,17.61
2022-09-14T23:07:35.015Z,17.11
2022-09-14T23:10:37.768Z,17.15
2022-09-14T23:13:41.052Z,17.55
2022-09-14T23:16:44.913Z,17.45
2022-09-14T23:19:47.685Z,17.14
2022-09-14T23:22:51.638Z,17.43
2022-09-14T23:25:54.228Z,17.39
2022-09-14T23:28:58.401Z,17.10
2022-09-14T23:32:00.992Z,16.85
2022-09-14T23:35:03.629Z,17.30
2022-09-14T23:38:07.587Z,17.13
2022-09-14T23:41:10.115Z,16.92
2022-09-14T23:44:13.087Z,16.97
2022-09-14T23:47:15.801Z,17.16
2022-09-14T23:50:18.894Z,17.12
2022-09-14T23:53:22.870Z,17.11
2022-09-14T23:56:26.559Z,16.57
2022-09-14T23:59:29.181Z,16.90
